x

Nantucket 54nm Southeast Of Nantucket (44008) Wave Buoy

6:50am - Mon 25th Jul 2016 All times are EDT. -4 hours from GMT.

  • Sig Wave height 2.0ft
  • Swell Direction
  • Peak Period 6s
  • Average Period 6s
  • Wind
    9mph, 11mph gusts
  • Sea Temp 65°f
  • Air Temp 69°f
  • Sea Pressure 1015.5mb
  • Nantucket 54nm Southeast Of Nantucket
  • Nantucket 54nm Southeast Of Nantucket

More Historic Weather Station data

Upgrade to MSW Pro to gain access to the past 30 days of data for over 8000 Wavebouys and Weather Stations around the globe.

Join Pro

Comparision Forecast

View Surf forecast
   
Mon 07/25 6:50am 2ft 6s 6s 9 11 mph 1015.5mb 65f 69f
5:50am 2ft 7s 5s 9 11 mph 1015.4mb 66f 69f
4:50am 2.5ft 7s 5s 7 9 mph 1015.6mb 67f 68f
3:50am 2ft 6s 5s 9
mph
1015.2mb 67f 69f
2:50am 2.5ft 5s 5s 9
mph
1015.5mb 67f 69f
1:50am 2.5ft 6s 5s 7
mph
1015.6mb 66f 68f
12:50am 2.5ft 7s 5s 7
mph
1015.8mb 65f 67f
Sun 07/24 11:50pm 3ft 5s 5s 7
mph
1016.1mb 59f 67f
10:50pm 3ft 7s 5s 4
mph
1016.3mb 59f 66f
9:50pm 3ft 7s 5s 4
mph
1016.2mb 59f 65f
8:50pm 2.5ft 7s 5s 4
mph
1015.9mb 60f 65f
7:50pm 3ft 7s 5s 4
mph
1015.4mb 63f 66f
6:50pm 2.5ft 7s 5s 4
mph
1014.9mb 64f 67f
5:50pm 2.5ft 7s 5s 4 7 mph 1014.7mb 66f 67f
4:50pm 2.5ft 7s 5s 7 9 mph 1014.8mb 67f 67f
3:50pm 2.5ft 7s 5s 7
mph
1014.5mb 68f 67f
2:50pm 2.5ft 6s 5s 9
mph
1014.7mb 68f 67f
1:50pm 2.5ft 7s 5s 9
mph
1014.6mb 67f 66f
12:50pm 3.5ft 7s 5s 7 9 mph 1014.4mb 64f 65f
11:50am 3.5ft 7s 5s 7 9 mph 1014.1mb 63f 63f
10:50am 3.5ft 6s 5s 7
mph
1013.9mb 60f 62f
9:50am 4ft 7s 6s 4 7 mph 1013.6mb 59f 61f
8:50am 4.5ft 7s 6s 7
mph
1013.2mb 58f 60f
7:50am 4.5ft 8s 6s 7 9 mph 1013.2mb 58f 62f
6:50am 4.5ft 7s 6s 4
mph
1012.3mb 57f 62f
5:50am 4.5ft 7s 6s 9
mph
1011.8mb 57f 65f
4:50am 4.5ft 7s 6s 7
mph
1011.3mb 58f 64f
3:50am 4.5ft 7s 6s 7
mph
1011.3mb 59f 65f
2:50am 5ft 7s 6s 7
mph
1011.3mb 60f 64f
1:50am 5ft 7s 6s 4 7 mph 1011mb 60f 66f
12:50am 6ft 7s 6s 7 9 mph 1011.3mb 60f 65f
Sat 07/23 11:50pm 5.5ft 7s 5s 9 11 mph 1010.6mb 61f 67f
10:50pm 6ft 8s 6s 13 16 mph 1009.2mb 62f 70f
9:50pm 5ft 7s 6s 16
mph
1009.3mb 62f 70f
8:50pm 5ft 7s 6s 16 18 mph 1008.9mb 63f 71f
7:50pm 5.5ft 7s 6s 16 18 mph 1008.6mb 63f 71f
6:50pm 5.5ft 7s 6s 16 18 mph 1008.4mb 64f 71f
4:50pm 5ft 7s 6s 11 13 mph 1008.8mb 64f 69f
3:50pm 5.5ft 7s 6s 13 16 mph 1008.8mb 65f 70f
2:50pm 5.5ft 7s 6s 13
mph
1008.8mb 65f 70f
1:50pm 6ft 7s 6s 13
mph
1008.9mb 64f 69f
12:50pm 6ft 6s 6s 11 13 mph 1009.2mb 63f 68f
11:50am 6.5ft 7s 6s 11 13 mph 1009.1mb 62f 68f
10:50am 7.5ft 7s 6s 9 11 mph 1009.3mb 60f 66f
9:50am 7ft 7s 6s 11 13 mph 1008.9mb 61f 67f
8:50am 7ft 7s 6s 13 16 mph 1009mb 62f 68f
7:50am 7ft 8s 6s 13 16 mph 1009.4mb 64f 69f
6:50am 6ft 7s 6s 11 18 mph 1010mb 63f 72f
5:50am 5.5ft 7s 6s 13 16 mph 1009.8mb 62f 68f
4:50am 6ft 7s 6s 18 20 mph 1009.3mb 62f 69f
3:50am 5ft 7s 5s 18 20 mph 1009.6mb 63f 70f
2:50am 5.5ft 7s 5s 18 20 mph 1010.1mb 64f 70f
1:50am 5ft 6s 5s 20 22 mph 1010.4mb 64f 70f
12:50am 5.5ft 6s 5s 18 20 mph 1010.7mb 64f 70f
Fri 07/22 11:50pm 5ft 6s 5s 18 20 mph 1011mb 64f 70f
10:50pm 5ft 6s 5s 18 22 mph 1011.2mb 63f 70f
9:50pm 5ft 5s 5s 18 20 mph 1011.3mb 63f 70f
8:50pm 4.5ft 6s 5s 18 20 mph 1011.4mb 63f 70f
7:50pm 4.5ft 5s 5s 18 20 mph 1011.4mb 64f 70f
6:50pm 3.5ft 5s 5s 18 20 mph 1011.9mb 64f 70f
5:50pm 3.5ft 6s 5s 18 20 mph 1012.1mb 66f 71f
4:50pm 3.5ft 6s 4s 18 20 mph 1012.6mb 67f 72f
3:50pm 3.5ft 6s 4s 18 22 mph 1013.2mb 68f 71f
2:50pm 3.5ft 5s 5s 18 20 mph 1013.6mb 68f 71f
1:50pm 3.5ft 5s 4s 18 22 mph 1014.2mb 68f 71f
12:50pm 3.5ft 5s 5s 18 20 mph 1014.5mb 70f 71f
11:50am 3ft 5s 5s 16 18 mph 1015.1mb 70f 71f
10:50am 3ft 6s 5s 16
mph
1015.7mb 69f 71f
9:50am 3ft 5s 5s 13 16 mph 1015.9mb 68f 71f
8:50am 2.5ft 5s 5s 11 13 mph 1016.4mb 65f 69f
7:50am 3ft 8s 5s 11
mph
1016.9mb 63f 68f
6:50am 2.5ft 8s 5s 9 11 mph 1017.1mb 63f 68f
5:50am 2.5ft 5s 5s 9 11 mph 1017.3mb 63f 67f
4:50am 2.5ft 4s 5s 11
mph
1017.3mb 64f 68f
3:50am 2.5ft 8s 5s 11 13 mph 1017.2mb 65f 69f
2:50am 2.5ft 8s 5s 11 13 mph 1017.7mb 66f 69f
1:50am 2.5ft 9s 5s 11 13 mph 1018.1mb 67f 69f
12:50am 2ft 8s 5s 11 13 mph 1018.3mb 67f 70f
Thu 07/21 11:50pm 2ft 8s 5s 11 13 mph 1018.6mb 68f 70f
10:50pm 2ft 8s 5s 11 13 mph 1018.9mb 68f 70f
9:50pm 2.5ft 9s 6s 11
mph
1019mb 67f 69f
8:50pm 2ft 8s 6s 9 11 mph 1018.8mb 65f 68f
7:50pm 2.5ft 8s 6s 9 11 mph 1018.9mb 65f 68f
6:50pm 2.5ft 8s 6s 9 11 mph 1019mb 65f 69f
5:50pm 2ft 8s 5s 9
mph
1019.9mb 66f 69f
4:50pm 2ft 9s 6s 7 9 mph 1019.8mb 67f 69f
3:50pm 2ft 9s 5s 11
mph
1019.8mb 69f 69f
2:50pm 2ft 9s 5s 9 11 mph 1020.3mb 70f 69f
1:50pm 2ft 8s 5s 9
mph
1021mb 70f 69f
12:50pm 2ft 9s 5s 7
mph
1021.2mb 69f 69f
11:50am 2ft 9s 5s 7 9 mph 1021.8mb 68f 68f